sensor_id;sensor_type;location;lat;lon;timestamp;P1;durP1;ratioP1;P2;durP2;ratioP2
78824;SDS011;68176;45.554;10.220;2023-03-23T00:00:43;7.68;;;5.57;;
78824;SDS011;68176;45.554;10.220;2023-03-23T00:03:13;8.23;;;5.25;;
78824;SDS011;68176;45.554;10.220;2023-03-23T00:05:43;7.28;;;4.70;;
78824;SDS011;68176;45.554;10.220;2023-03-23T00:08:15;3.60;;;3.20;;
78824;SDS011;68176;45.554;10.220;2023-03-23T00:10:43;11.27;;;5.05;;
78824;SDS011;68176;45.554;10.220;2023-03-23T00:13:13;6.30;;;4.63;;
78824;SDS011;68176;45.554;10.220;2023-03-23T00:18:14;6.85;;;4.90;;
78824;SDS011;68176;45.554;10.220;2023-03-23T00:20:46;3.70;;;3.30;;
78824;SDS011;68176;45.554;10.220;2023-03-23T00:23:14;6.40;;;3.95;;
78824;SDS011;68176;45.554;10.220;2023-03-23T00:25:47;4.40;;;3.60;;
78824;SDS011;68176;45.554;10.220;2023-03-23T00:28:14;4.95;;;4.35;;
78824;SDS011;68176;45.554;10.220;2023-03-23T00:30:43;7.15;;;5.03;;
78824;SDS011;68176;45.554;10.220;2023-03-23T00:33:13;6.72;;;5.07;;
78824;SDS011;68176;45.554;10.220;2023-03-23T00:35:43;6.05;;;4.57;;
78824;SDS011;68176;45.554;10.220;2023-03-23T00:38:13;7.95;;;4.57;;
78824;SDS011;68176;45.554;10.220;2023-03-23T00:40:44;5.72;;;4.22;;
78824;SDS011;68176;45.554;10.220;2023-03-23T00:43:14;6.35;;;4.15;;
78824;SDS011;68176;45.554;10.220;2023-03-23T00:45:44;7.75;;;5.63;;
78824;SDS011;68176;45.554;10.220;2023-03-23T00:48:14;5.63;;;4.15;;
78824;SDS011;68176;45.554;10.220;2023-03-23T00:50:43;7.75;;;5.38;;
78824;SDS011;68176;45.554;10.220;2023-03-23T00:53:14;6.13;;;4.68;;
78824;SDS011;68176;45.554;10.220;2023-03-23T00:55:44;5.25;;;4.45;;
78824;SDS011;68176;45.554;10.220;2023-03-23T00:58:14;6.50;;;4.78;;
78824;SDS011;68176;45.554;10.220;2023-03-23T01:00:44;6.90;;;4.63;;
78824;SDS011;68176;45.554;10.220;2023-03-23T01:05:44;5.60;;;4.13;;
78824;SDS011;68176;45.554;10.220;2023-03-23T01:08:14;5.63;;;4.07;;
78824;SDS011;68176;45.554;10.220;2023-03-23T01:10:47;6.45;;;5.13;;
78824;SDS011;68176;45.554;10.220;2023-03-23T01:13:14;4.87;;;3.83;;
78824;SDS011;68176;45.554;10.220;2023-03-23T01:15:44;5.80;;;4.28;;
78824;SDS011;68176;45.554;10.220;2023-03-23T01:18:14;6.22;;;4.32;;
78824;SDS011;68176;45.554;10.220;2023-03-23T01:20:44;5.97;;;4.22;;
78824;SDS011;68176;45.554;10.220;2023-03-23T01:23:14;6.55;;;4.57;;
78824;SDS011;68176;45.554;10.220;2023-03-23T01:25:44;6.60;;;5.13;;
78824;SDS011;68176;45.554;10.220;2023-03-23T01:28:14;6.70;;;4.88;;
78824;SDS011;68176;45.554;10.220;2023-03-23T01:30:44;7.20;;;4.68;;
78824;SDS011;68176;45.554;10.220;2023-03-23T01:33:14;5.60;;;3.92;;
78824;SDS011;68176;45.554;10.220;2023-03-23T01:35:44;6.80;;;4.63;;
78824;SDS011;68176;45.554;10.220;2023-03-23T01:38:14;5.35;;;4.35;;
78824;SDS011;68176;45.554;10.220;2023-03-23T01:40:44;8.30;;;4.90;;
78824;SDS011;68176;45.554;10.220;2023-03-23T01:43:14;6.63;;;4.63;;
78824;SDS011;68176;45.554;10.220;2023-03-23T01:45:44;5.68;;;4.60;;
78824;SDS011;68176;45.554;10.220;2023-03-23T01:48:19;6.15;;;4.47;;
78824;SDS011;68176;45.554;10.220;2023-03-23T01:50:57;10.02;;;4.82;;
78824;SDS011;68176;45.554;10.220;2023-03-23T01:53:28;9.60;;;5.65;;
78824;SDS011;68176;45.554;10.220;2023-03-23T01:56:06;4.93;;;3.77;;
78824;SDS011;68176;45.554;10.220;2023-03-23T01:58:34;4.75;;;3.55;;
78824;SDS011;68176;45.554;10.220;2023-03-23T02:01:04;6.40;;;4.30;;
78824;SDS011;68176;45.554;10.220;2023-03-23T02:03:32;6.50;;;3.50;;
78824;SDS011;68176;45.554;10.220;2023-03-23T02:05:59;5.60;;;3.80;;
78824;SDS011;68176;45.554;10.220;2023-03-23T02:08:29;6.50;;;4.80;;
78824;SDS011;68176;45.554;10.220;2023-03-23T02:10:59;6.15;;;4.35;;
78824;SDS011;68176;45.554;10.220;2023-03-23T02:13:29;6.13;;;4.68;;
78824;SDS011;68176;45.554;10.220;2023-03-23T02:24:17;14.30;;;4.43;;
78824;SDS011;68176;45.554;10.220;2023-03-23T02:27:08;8.13;;;4.97;;
78824;SDS011;68176;45.554;10.220;2023-03-23T02:35:37;4.90;;;4.17;;
78824;SDS011;68176;45.554;10.220;2023-03-23T02:38:08;4.60;;;3.40;;
78824;SDS011;68176;45.554;10.220;2023-03-23T02:40:46;6.50;;;4.85;;
78824;SDS011;68176;45.554;10.220;2023-03-23T02:43:14;5.93;;;4.43;;
78824;SDS011;68176;45.554;10.220;2023-03-23T02:45:44;5.43;;;4.37;;
78824;SDS011;68176;45.554;10.220;2023-03-23T02:50:38;5.85;;;4.00;;
78824;SDS011;68176;45.554;10.220;2023-03-23T02:53:08;6.38;;;4.47;;
78824;SDS011;68176;45.554;10.220;2023-03-23T02:55:39;7.85;;;4.95;;
78824;SDS011;68176;45.554;10.220;2023-03-23T02:58:08;6.95;;;4.03;;
78824;SDS011;68176;45.554;10.220;2023-03-23T03:00:38;6.97;;;5.38;;
78824;SDS011;68176;45.554;10.220;2023-03-23T03:03:10;5.68;;;4.45;;
78824;SDS011;68176;45.554;10.220;2023-03-23T03:05:42;4.15;;;2.85;;
78824;SDS011;68176;45.554;10.220;2023-03-23T03:19:00;8.50;;;6.80;;
78824;SDS011;68176;45.554;10.220;2023-03-23T03:24:03;5.50;;;4.38;;
78824;SDS011;68176;45.554;10.220;2023-03-23T03:26:30;6.40;;;3.50;;
78824;SDS011;68176;45.554;10.220;2023-03-23T03:31:28;7.35;;;4.50;;
78824;SDS011;68176;45.554;10.220;2023-03-23T03:33:57;4.75;;;4.05;;
78824;SDS011;68176;45.554;10.220;2023-03-23T03:36:30;6.03;;;4.45;;
78824;SDS011;68176;45.554;10.220;2023-03-23T03:39:00;4.10;;;3.45;;
78824;SDS011;68176;45.554;10.220;2023-03-23T03:41:30;5.90;;;4.60;;
78824;SDS011;68176;45.554;10.220;2023-03-23T03:43:56;4.68;;;4.18;;
78824;SDS011;68176;45.554;10.220;2023-03-23T03:46:26;7.65;;;4.53;;
78824;SDS011;68176;45.554;10.220;2023-03-23T03:48:57;6.28;;;5.07;;
78824;SDS011;68176;45.554;10.220;2023-03-23T03:51:27;7.40;;;5.18;;
78824;SDS011;68176;45.554;10.220;2023-03-23T03:53:56;6.65;;;5.07;;
78824;SDS011;68176;45.554;10.220;2023-03-23T03:56:26;7.07;;;4.88;;
78824;SDS011;68176;45.554;10.220;2023-03-23T03:58:56;5.82;;;4.68;;
78824;SDS011;68176;45.554;10.220;2023-03-23T04:01:26;7.25;;;4.47;;
78824;SDS011;68176;45.554;10.220;2023-03-23T04:03:56;6.18;;;4.55;;
78824;SDS011;68176;45.554;10.220;2023-03-23T04:06:26;7.28;;;4.43;;
78824;SDS011;68176;45.554;10.220;2023-03-23T04:08:57;6.55;;;4.38;;
78824;SDS011;68176;45.554;10.220;2023-03-23T04:11:26;6.85;;;4.57;;
78824;SDS011;68176;45.554;10.220;2023-03-23T04:13:56;6.38;;;4.35;;
78824;SDS011;68176;45.554;10.220;2023-03-23T04:16:26;5.50;;;4.43;;
78824;SDS011;68176;45.554;10.220;2023-03-23T04:18:56;6.88;;;4.80;;
78824;SDS011;68176;45.554;10.220;2023-03-23T04:21:26;7.25;;;4.63;;
78824;SDS011;68176;45.554;10.220;2023-03-23T04:23:56;8.90;;;4.82;;
78824;SDS011;68176;45.554;10.220;2023-03-23T04:26:27;5.15;;;4.65;;
78824;SDS011;68176;45.554;10.220;2023-03-23T04:28:56;5.95;;;4.20;;
78824;SDS011;68176;45.554;10.220;2023-03-23T04:31:26;5.90;;;4.57;;
78824;SDS011;68176;45.554;10.220;2023-03-23T04:33:56;6.47;;;4.57;;
78824;SDS011;68176;45.554;10.220;2023-03-23T04:36:27;7.07;;;4.35;;
78824;SDS011;68176;45.554;10.220;2023-03-23T04:38:59;4.30;;;2.70;;
78824;SDS011;68176;45.554;10.220;2023-03-23T04:41:27;8.48;;;5.07;;
78824;SDS011;68176;45.554;10.220;2023-03-23T04:43:56;6.22;;;4.50;;
78824;SDS011;68176;45.554;10.220;2023-03-23T04:46:26;5.97;;;5.00;;
78824;SDS011;68176;45.554;10.220;2023-03-23T04:48:57;6.32;;;5.05;;
78824;SDS011;68176;45.554;10.220;2023-03-23T04:51:27;5.35;;;4.70;;
78824;SDS011;68176;45.554;10.220;2023-03-23T04:53:56;7.32;;;4.22;;
78824;SDS011;68176;45.554;10.220;2023-03-23T04:56:27;9.45;;;4.78;;
78824;SDS011;68176;45.554;10.220;2023-03-23T04:58:56;6.93;;;4.63;;
78824;SDS011;68176;45.554;10.220;2023-03-23T05:01:26;7.93;;;4.38;;
78824;SDS011;68176;45.554;10.220;2023-03-23T05:03:57;6.80;;;4.70;;
78824;SDS011;68176;45.554;10.220;2023-03-23T05:06:26;7.43;;;4.70;;
78824;SDS011;68176;45.554;10.220;2023-03-23T05:08:56;5.28;;;4.07;;
78824;SDS011;68176;45.554;10.220;2023-03-23T05:11:27;6.43;;;4.95;;
78824;SDS011;68176;45.554;10.220;2023-03-23T05:13:57;6.80;;;4.57;;
78824;SDS011;68176;45.554;10.220;2023-03-23T05:16:27;6.15;;;4.82;;
78824;SDS011;68176;45.554;10.220;2023-03-23T05:18:57;5.88;;;4.18;;
78824;SDS011;68176;45.554;10.220;2023-03-23T05:21:27;6.63;;;4.60;;
78824;SDS011;68176;45.554;10.220;2023-03-23T05:23:56;7.97;;;4.50;;
78824;SDS011;68176;45.554;10.220;2023-03-23T05:26:27;7.32;;;3.70;;
78824;SDS011;68176;45.554;10.220;2023-03-23T05:28:57;6.25;;;3.78;;
78824;SDS011;68176;45.554;10.220;2023-03-23T05:31:27;7.20;;;4.45;;
78824;SDS011;68176;45.554;10.220;2023-03-23T05:33:57;5.95;;;4.53;;
78824;SDS011;68176;45.554;10.220;2023-03-23T05:36:27;7.25;;;4.35;;
78824;SDS011;68176;45.554;10.220;2023-03-23T05:38:57;6.00;;;4.05;;
78824;SDS011;68176;45.554;10.220;2023-03-23T05:41:27;5.78;;;4.05;;
78824;SDS011;68176;45.554;10.220;2023-03-23T05:43:57;5.80;;;4.35;;
78824;SDS011;68176;45.554;10.220;2023-03-23T05:46:27;7.03;;;4.25;;
78824;SDS011;68176;45.554;10.220;2023-03-23T05:48:57;6.18;;;4.28;;
78824;SDS011;68176;45.554;10.220;2023-03-23T05:51:27;5.18;;;4.15;;
78824;SDS011;68176;45.554;10.220;2023-03-23T05:53:57;5.55;;;3.75;;
78824;SDS011;68176;45.554;10.220;2023-03-23T05:56:27;5.03;;;4.32;;
78824;SDS011;68176;45.554;10.220;2023-03-23T05:58:57;4.80;;;3.35;;
78824;SDS011;68176;45.554;10.220;2023-03-23T06:01:27;5.30;;;4.13;;
78824;SDS011;68176;45.554;10.220;2023-03-23T06:03:57;4.93;;;3.67;;
78824;SDS011;68176;45.554;10.220;2023-03-23T06:06:27;11.55;;;4.32;;
78824;SDS011;68176;45.554;10.220;2023-03-23T06:08:57;5.32;;;4.10;;
78824;SDS011;68176;45.554;10.220;2023-03-23T06:11:27;6.90;;;4.35;;
78824;SDS011;68176;45.554;10.220;2023-03-23T06:13:57;6.15;;;4.75;;
78824;SDS011;68176;45.554;10.220;2023-03-23T06:16:27;4.93;;;4.22;;
78824;SDS011;68176;45.554;10.220;2023-03-23T06:18:57;5.53;;;3.92;;
78824;SDS011;68176;45.554;10.220;2023-03-23T06:21:27;6.30;;;4.18;;
78824;SDS011;68176;45.554;10.220;2023-03-23T06:23:57;8.60;;;4.13;;
78824;SDS011;68176;45.554;10.220;2023-03-23T06:26:28;24.08;;;15.25;;
78824;SDS011;68176;45.554;10.220;2023-03-23T06:28:57;17.83;;;12.00;;
78824;SDS011;68176;45.554;10.220;2023-03-23T06:31:27;20.10;;;11.32;;
78824;SDS011;68176;45.554;10.220;2023-03-23T06:33:57;17.63;;;9.82;;
78824;SDS011;68176;45.554;10.220;2023-03-23T06:36:27;17.33;;;10.18;;
78824;SDS011;68176;45.554;10.220;2023-03-23T06:38:57;19.25;;;10.93;;
78824;SDS011;68176;45.554;10.220;2023-03-23T06:41:27;15.98;;;10.90;;
78824;SDS011;68176;45.554;10.220;2023-03-23T06:43:57;18.23;;;10.52;;
78824;SDS011;68176;45.554;10.220;2023-03-23T06:46:27;15.80;;;10.30;;
78824;SDS011;68176;45.554;10.220;2023-03-23T06:51:27;17.88;;;10.25;;
78824;SDS011;68176;45.554;10.220;2023-03-23T06:53:57;13.40;;;9.18;;
78824;SDS011;68176;45.554;10.220;2023-03-23T06:56:27;15.43;;;9.63;;
78824;SDS011;68176;45.554;10.220;2023-03-23T06:58:57;16.00;;;9.25;;
78824;SDS011;68176;45.554;10.220;2023-03-23T07:01:27;12.80;;;8.27;;
78824;SDS011;68176;45.554;10.220;2023-03-23T07:03:57;12.73;;;8.15;;
78824;SDS011;68176;45.554;10.220;2023-03-23T07:06:27;13.57;;;8.65;;
78824;SDS011;68176;45.554;10.220;2023-03-23T07:08:57;12.95;;;7.80;;
78824;SDS011;68176;45.554;10.220;2023-03-23T07:11:27;10.10;;;7.97;;
78824;SDS011;68176;45.554;10.220;2023-03-23T07:13:57;14.57;;;7.45;;
78824;SDS011;68176;45.554;10.220;2023-03-23T07:16:27;11.95;;;7.18;;
78824;SDS011;68176;45.554;10.220;2023-03-23T07:18:58;12.85;;;7.50;;
78824;SDS011;68176;45.554;10.220;2023-03-23T07:21:27;12.75;;;7.07;;
78824;SDS011;68176;45.554;10.220;2023-03-23T07:23:57;10.68;;;6.82;;
78824;SDS011;68176;45.554;10.220;2023-03-23T07:26:27;11.05;;;6.70;;
78824;SDS011;68176;45.554;10.220;2023-03-23T07:31:27;11.13;;;6.47;;
78824;SDS011;68176;45.554;10.220;2023-03-23T07:33:57;8.40;;;6.18;;
78824;SDS011;68176;45.554;10.220;2023-03-23T07:36:27;7.55;;;5.50;;
78824;SDS011;68176;45.554;10.220;2023-03-23T07:38:58;8.85;;;6.05;;
78824;SDS011;68176;45.554;10.220;2023-03-23T07:41:27;8.65;;;5.95;;
78824;SDS011;68176;45.554;10.220;2023-03-23T07:43:57;7.45;;;5.25;;
78824;SDS011;68176;45.554;10.220;2023-03-23T07:46:27;7.88;;;5.85;;
78824;SDS011;68176;45.554;10.220;2023-03-23T07:48:57;9.85;;;5.63;;
78824;SDS011;68176;45.554;10.220;2023-03-23T07:51:27;6.03;;;4.40;;
78824;SDS011;68176;45.554;10.220;2023-03-23T07:53:57;35.97;;;20.63;;
78824;SDS011;68176;45.554;10.220;2023-03-23T07:56:28;22.77;;;16.33;;
78824;SDS011;68176;45.554;10.220;2023-03-23T07:58:57;17.70;;;12.20;;
78824;SDS011;68176;45.554;10.220;2023-03-23T08:01:28;21.25;;;13.55;;
78824;SDS011;68176;45.554;10.220;2023-03-23T08:03:58;21.40;;;14.02;;
78824;SDS011;68176;45.554;10.220;2023-03-23T08:06:27;17.48;;;11.95;;
78824;SDS011;68176;45.554;10.220;2023-03-23T08:08:57;19.73;;;11.40;;
78824;SDS011;68176;45.554;10.220;2023-03-23T08:11:27;23.83;;;12.90;;
78824;SDS011;68176;45.554;10.220;2023-03-23T08:13:57;19.23;;;11.50;;
78824;SDS011;68176;45.554;10.220;2023-03-23T08:16:28;15.85;;;10.15;;
78824;SDS011;68176;45.554;10.220;2023-03-23T08:18:57;17.77;;;11.20;;
78824;SDS011;68176;45.554;10.220;2023-03-23T08:21:27;16.00;;;10.43;;
78824;SDS011;68176;45.554;10.220;2023-03-23T08:23:57;18.10;;;10.50;;
78824;SDS011;68176;45.554;10.220;2023-03-23T08:26:27;18.77;;;10.68;;
78824;SDS011;68176;45.554;10.220;2023-03-23T08:31:27;18.63;;;11.70;;
78824;SDS011;68176;45.554;10.220;2023-03-23T08:33:58;19.05;;;10.27;;
78824;SDS011;68176;45.554;10.220;2023-03-23T08:36:27;18.42;;;9.73;;
78824;SDS011;68176;45.554;10.220;2023-03-23T08:38:58;12.48;;;8.20;;
78824;SDS011;68176;45.554;10.220;2023-03-23T08:41:27;15.02;;;9.60;;
78824;SDS011;68176;45.554;10.220;2023-03-23T08:43:58;15.80;;;9.05;;
78824;SDS011;68176;45.554;10.220;2023-03-23T08:46:28;14.45;;;9.40;;
78824;SDS011;68176;45.554;10.220;2023-03-23T08:48:58;14.55;;;9.35;;
78824;SDS011;68176;45.554;10.220;2023-03-23T08:51:28;17.92;;;9.75;;
78824;SDS011;68176;45.554;10.220;2023-03-23T08:53:58;12.57;;;7.10;;
78824;SDS011;68176;45.554;10.220;2023-03-23T08:56:28;13.10;;;8.40;;
78824;SDS011;68176;45.554;10.220;2023-03-23T08:58:58;14.95;;;9.57;;
78824;SDS011;68176;45.554;10.220;2023-03-23T09:01:28;13.25;;;7.97;;
78824;SDS011;68176;45.554;10.220;2023-03-23T09:03:58;16.40;;;9.10;;
78824;SDS011;68176;45.554;10.220;2023-03-23T09:06:28;12.50;;;8.35;;
78824;SDS011;68176;45.554;10.220;2023-03-23T09:08:58;14.95;;;8.05;;
78824;SDS011;68176;45.554;10.220;2023-03-23T09:11:28;11.68;;;8.63;;
78824;SDS011;68176;45.554;10.220;2023-03-23T09:13:58;13.82;;;6.60;;
78824;SDS011;68176;45.554;10.220;2023-03-23T09:16:28;11.02;;;6.72;;
78824;SDS011;68176;45.554;10.220;2023-03-23T09:18:58;14.50;;;7.38;;
78824;SDS011;68176;45.554;10.220;2023-03-23T09:21:28;12.45;;;6.65;;
78824;SDS011;68176;45.554;10.220;2023-03-23T09:23:58;13.15;;;7.55;;
78824;SDS011;68176;45.554;10.220;2023-03-23T09:26:28;12.45;;;6.47;;
78824;SDS011;68176;45.554;10.220;2023-03-23T09:28:58;9.98;;;6.18;;
78824;SDS011;68176;45.554;10.220;2023-03-23T09:31:28;9.27;;;5.70;;
78824;SDS011;68176;45.554;10.220;2023-03-23T09:33:58;11.38;;;6.07;;
78824;SDS011;68176;45.554;10.220;2023-03-23T09:36:28;9.00;;;5.70;;
78824;SDS011;68176;45.554;10.220;2023-03-23T09:38:58;6.82;;;5.10;;
78824;SDS011;68176;45.554;10.220;2023-03-23T09:47:08;9.30;;;5.17;;
78824;SDS011;68176;45.554;10.220;2023-03-23T09:52:17;10.50;;;5.40;;
78824;SDS011;68176;45.554;10.220;2023-03-23T09:54:48;3.20;;;2.70;;
78824;SDS011;68176;45.554;10.220;2023-03-23T09:57:26;4.75;;;3.70;;
78824;SDS011;68176;45.554;10.220;2023-03-23T10:00:01;6.40;;;4.85;;
78824;SDS011;68176;45.554;10.220;2023-03-23T10:02:43;7.03;;;3.83;;
78824;SDS011;68176;45.554;10.220;2023-03-23T10:05:22;7.33;;;5.23;;
78824;SDS011;68176;45.554;10.220;2023-03-23T10:07:59;4.73;;;4.03;;
78824;SDS011;68176;45.554;10.220;2023-03-23T10:10:32;4.90;;;3.90;;
78824;SDS011;68176;45.554;10.220;2023-03-23T10:13:11;8.68;;;3.95;;
78824;SDS011;68176;45.554;10.220;2023-03-23T10:15:45;6.22;;;4.50;;
78824;SDS011;68176;45.554;10.220;2023-03-23T10:18:14;4.70;;;3.95;;
78824;SDS011;68176;45.554;10.220;2023-03-23T10:29:11;7.32;;;4.35;;
78824;SDS011;68176;45.554;10.220;2023-03-23T10:31:43;6.00;;;4.43;;
78824;SDS011;68176;45.554;10.220;2023-03-23T10:34:40;8.95;;;4.10;;
78824;SDS011;68176;45.554;10.220;2023-03-23T10:37:14;9.23;;;4.45;;
78824;SDS011;68176;45.554;10.220;2023-03-23T10:39:59;6.57;;;5.50;;
78824;SDS011;68176;45.554;10.220;2023-03-23T10:42:32;9.73;;;5.43;;
78824;SDS011;68176;45.554;10.220;2023-03-23T10:44:59;16.27;;;6.80;;
78824;SDS011;68176;45.554;10.220;2023-03-23T10:47:36;14.10;;;6.32;;
78824;SDS011;68176;45.554;10.220;2023-03-23T10:50:05;14.27;;;6.50;;
78824;SDS011;68176;45.554;10.220;2023-03-23T10:52:37;10.87;;;5.73;;
78824;SDS011;68176;45.554;10.220;2023-03-23T10:55:07;6.90;;;4.50;;
78824;SDS011;68176;45.554;10.220;2023-03-23T10:57:34;9.00;;;5.90;;
78824;SDS011;68176;45.554;10.220;2023-03-23T11:08:17;10.37;;;5.63;;
78824;SDS011;68176;45.554;10.220;2023-03-23T11:10:49;12.90;;;4.55;;
78824;SDS011;68176;45.554;10.220;2023-03-23T11:13:37;6.70;;;4.97;;
78824;SDS011;68176;45.554;10.220;2023-03-23T11:16:07;15.60;;;4.43;;
78824;SDS011;68176;45.554;10.220;2023-03-23T11:18:38;9.40;;;4.30;;
78824;SDS011;68176;45.554;10.220;2023-03-23T11:21:05;8.85;;;5.30;;
78824;SDS011;68176;45.554;10.220;2023-03-23T11:23:38;9.30;;;5.35;;
78824;SDS011;68176;45.554;10.220;2023-03-23T11:28:58;7.82;;;4.53;;
78824;SDS011;68176;45.554;10.220;2023-03-23T11:31:43;8.82;;;4.95;;
78824;SDS011;68176;45.554;10.220;2023-03-23T11:34:15;11.50;;;4.20;;
78824;SDS011;68176;45.554;10.220;2023-03-23T11:37:00;6.63;;;4.65;;
78824;SDS011;68176;45.554;10.220;2023-03-23T11:39:27;12.43;;;5.07;;
78824;SDS011;68176;45.554;10.220;2023-03-23T11:42:25;8.90;;;4.68;;
78824;SDS011;68176;45.554;10.220;2023-03-23T11:51:00;10.02;;;5.95;;
78824;SDS011;68176;45.554;10.220;2023-03-23T11:56:50;11.48;;;5.95;;
78824;SDS011;68176;45.554;10.220;2023-03-23T11:59:26;17.30;;;3.70;;
78824;SDS011;68176;45.554;10.220;2023-03-23T12:02:06;10.50;;;6.15;;
78824;SDS011;68176;45.554;10.220;2023-03-23T12:08:03;10.93;;;5.73;;
78824;SDS011;68176;45.554;10.220;2023-03-23T12:15:34;8.48;;;5.93;;
78824;SDS011;68176;45.554;10.220;2023-03-23T12:26:23;15.03;;;8.17;;
78824;SDS011;68176;45.554;10.220;2023-03-23T12:32:16;14.73;;;7.00;;
78824;SDS011;68176;45.554;10.220;2023-03-23T12:35:05;10.47;;;6.77;;
78824;SDS011;68176;45.554;10.220;2023-03-23T12:45:42;12.25;;;7.70;;
78824;SDS011;68176;45.554;10.220;2023-03-23T12:48:20;16.87;;;8.33;;
78824;SDS011;68176;45.554;10.220;2023-03-23T12:53:22;26.15;;;9.77;;
78824;SDS011;68176;45.554;10.220;2023-03-23T12:56:02;13.80;;;11.03;;
78824;SDS011;68176;45.554;10.220;2023-03-23T12:58:37;12.43;;;8.57;;
78824;SDS011;68176;45.554;10.220;2023-03-23T13:01:20;15.37;;;9.50;;
78824;SDS011;68176;45.554;10.220;2023-03-23T13:07:01;14.95;;;9.00;;
78824;SDS011;68176;45.554;10.220;2023-03-23T13:09:36;14.00;;;9.40;;
78824;SDS011;68176;45.554;10.220;2023-03-23T13:12:24;10.63;;;7.77;;
78824;SDS011;68176;45.554;10.220;2023-03-23T13:14:54;19.30;;;9.20;;
78824;SDS011;68176;45.554;10.220;2023-03-23T13:17:29;21.77;;;9.00;;
78824;SDS011;68176;45.554;10.220;2023-03-23T13:22:47;16.57;;;10.57;;
78824;SDS011;68176;45.554;10.220;2023-03-23T13:28:22;15.88;;;10.57;;
78824;SDS011;68176;45.554;10.220;2023-03-23T13:39:24;12.70;;;8.77;;
78824;SDS011;68176;45.554;10.220;2023-03-23T13:42:00;14.70;;;8.47;;
78824;SDS011;68176;45.554;10.220;2023-03-23T13:44:40;10.90;;;6.73;;
78824;SDS011;68176;45.554;10.220;2023-03-23T13:47:08;17.27;;;8.40;;
78824;SDS011;68176;45.554;10.220;2023-03-23T13:52:49;12.98;;;6.82;;
78824;SDS011;68176;45.554;10.220;2023-03-23T14:10:44;15.95;;;9.00;;
78824;SDS011;68176;45.554;10.220;2023-03-23T14:13:17;8.30;;;5.25;;
78824;SDS011;68176;45.554;10.220;2023-03-23T14:15:59;13.35;;;7.60;;
78824;SDS011;68176;45.554;10.220;2023-03-23T14:18:39;10.48;;;7.28;;
78824;SDS011;68176;45.554;10.220;2023-03-23T14:21:13;12.43;;;7.70;;
78824;SDS011;68176;45.554;10.220;2023-03-23T14:23:41;13.07;;;9.10;;
78824;SDS011;68176;45.554;10.220;2023-03-23T14:26:12;8.20;;;6.60;;
78824;SDS011;68176;45.554;10.220;2023-03-23T14:28:42;22.27;;;8.07;;
78824;SDS011;68176;45.554;10.220;2023-03-23T14:31:22;12.57;;;7.37;;
78824;SDS011;68176;45.554;10.220;2023-03-23T14:33:50;10.35;;;6.40;;
78824;SDS011;68176;45.554;10.220;2023-03-23T14:36:23;10.65;;;6.30;;
78824;SDS011;68176;45.554;10.220;2023-03-23T14:39:25;7.10;;;4.37;;
78824;SDS011;68176;45.554;10.220;2023-03-23T14:41:51;8.70;;;4.77;;
78824;SDS011;68176;45.554;10.220;2023-03-23T14:44:23;7.55;;;4.05;;
78824;SDS011;68176;45.554;10.220;2023-03-23T14:46:51;12.90;;;4.03;;
78824;SDS011;68176;45.554;10.220;2023-03-23T14:49:19;12.10;;;2.50;;
78824;SDS011;68176;45.554;10.220;2023-03-23T14:51:52;5.13;;;2.60;;
78824;SDS011;68176;45.554;10.220;2023-03-23T14:54:27;6.90;;;2.50;;
78824;SDS011;68176;45.554;10.220;2023-03-23T14:56:54;9.15;;;3.13;;
78824;SDS011;68176;45.554;10.220;2023-03-23T14:59:20;3.05;;;2.00;;
78824;SDS011;68176;45.554;10.220;2023-03-23T15:01:49;5.13;;;2.33;;
78824;SDS011;68176;45.554;10.220;2023-03-23T15:04:21;7.43;;;3.10;;
78824;SDS011;68176;45.554;10.220;2023-03-23T15:06:51;5.50;;;2.65;;
78824;SDS011;68176;45.554;10.220;2023-03-23T15:09:22;10.20;;;1.60;;
78824;SDS011;68176;45.554;10.220;2023-03-23T15:14:23;3.70;;;1.60;;
78824;SDS011;68176;45.554;10.220;2023-03-23T15:16:52;4.90;;;2.20;;
78824;SDS011;68176;45.554;10.220;2023-03-23T15:19:23;2.80;;;2.00;;
78824;SDS011;68176;45.554;10.220;2023-03-23T15:21:51;3.30;;;2.10;;
78824;SDS011;68176;45.554;10.220;2023-03-23T15:29:59;7.63;;;3.00;;
78824;SDS011;68176;45.554;10.220;2023-03-23T15:32:40;2.80;;;1.80;;
78824;SDS011;68176;45.554;10.220;2023-03-23T15:35:13;4.67;;;1.87;;
78824;SDS011;68176;45.554;10.220;2023-03-23T15:37:42;3.25;;;1.55;;
78824;SDS011;68176;45.554;10.220;2023-03-23T15:40:16;3.35;;;1.75;;
78824;SDS011;68176;45.554;10.220;2023-03-23T15:42:44;3.03;;;1.70;;
78824;SDS011;68176;45.554;10.220;2023-03-23T15:47:44;2.53;;;1.75;;
78824;SDS011;68176;45.554;10.220;2023-03-23T15:52:39;3.60;;;1.60;;
78824;SDS011;68176;45.554;10.220;2023-03-23T15:55:36;4.72;;;2.13;;
78824;SDS011;68176;45.554;10.220;2023-03-23T15:58:10;2.73;;;1.47;;
78824;SDS011;68176;45.554;10.220;2023-03-23T16:00:36;1.83;;;1.30;;
78824;SDS011;68176;45.554;10.220;2023-03-23T16:03:07;3.00;;;2.00;;
78824;SDS011;68176;45.554;10.220;2023-03-23T16:05:36;3.03;;;1.43;;
78824;SDS011;68176;45.554;10.220;2023-03-23T16:08:02;1.50;;;0.80;;
78824;SDS011;68176;45.554;10.220;2023-03-23T16:10:30;5.15;;;1.63;;
78824;SDS011;68176;45.554;10.220;2023-03-23T16:13:00;2.80;;;1.75;;
78824;SDS011;68176;45.554;10.220;2023-03-23T16:15:30;2.90;;;1.55;;
78824;SDS011;68176;45.554;10.220;2023-03-23T16:18:01;3.05;;;1.42;;
78824;SDS011;68176;45.554;10.220;2023-03-23T16:20:31;5.10;;;1.67;;
78824;SDS011;68176;45.554;10.220;2023-03-23T16:23:00;3.00;;;2.05;;
78824;SDS011;68176;45.554;10.220;2023-03-23T16:25:31;3.63;;;1.92;;
78824;SDS011;68176;45.554;10.220;2023-03-23T16:28:01;3.95;;;1.77;;
78824;SDS011;68176;45.554;10.220;2023-03-23T16:30:34;4.32;;;1.88;;
78824;SDS011;68176;45.554;10.220;2023-03-23T16:33:02;1.90;;;0.90;;
78824;SDS011;68176;45.554;10.220;2023-03-23T16:35:31;2.80;;;1.58;;
78824;SDS011;68176;45.554;10.220;2023-03-23T16:38:01;3.22;;;1.67;;
78824;SDS011;68176;45.554;10.220;2023-03-23T16:40:31;4.63;;;1.90;;
78824;SDS011;68176;45.554;10.220;2023-03-23T16:43:01;3.50;;;1.92;;
78824;SDS011;68176;45.554;10.220;2023-03-23T16:45:31;2.78;;;1.67;;
78824;SDS011;68176;45.554;10.220;2023-03-23T16:48:01;2.90;;;1.65;;
78824;SDS011;68176;45.554;10.220;2023-03-23T16:50:31;3.78;;;1.90;;
78824;SDS011;68176;45.554;10.220;2023-03-23T16:53:01;2.97;;;1.58;;
78824;SDS011;68176;45.554;10.220;2023-03-23T16:55:31;4.05;;;1.63;;
78824;SDS011;68176;45.554;10.220;2023-03-23T16:58:01;2.50;;;1.52;;
78824;SDS011;68176;45.554;10.220;2023-03-23T17:00:31;4.57;;;1.67;;
78824;SDS011;68176;45.554;10.220;2023-03-23T17:03:01;4.20;;;1.92;;
78824;SDS011;68176;45.554;10.220;2023-03-23T17:05:31;3.13;;;1.98;;
78824;SDS011;68176;45.554;10.220;2023-03-23T17:08:01;2.55;;;1.45;;
78824;SDS011;68176;45.554;10.220;2023-03-23T17:10:31;3.88;;;1.83;;
78824;SDS011;68176;45.554;10.220;2023-03-23T17:13:01;4.20;;;1.77;;
78824;SDS011;68176;45.554;10.220;2023-03-23T17:15:31;2.50;;;1.38;;
78824;SDS011;68176;45.554;10.220;2023-03-23T17:18:01;5.15;;;2.00;;
78824;SDS011;68176;45.554;10.220;2023-03-23T17:20:31;2.83;;;1.83;;
78824;SDS011;68176;45.554;10.220;2023-03-23T17:23:01;3.08;;;1.67;;
78824;SDS011;68176;45.554;10.220;2023-03-23T17:25:31;4.00;;;2.15;;
78824;SDS011;68176;45.554;10.220;2023-03-23T17:28:01;3.58;;;1.80;;
78824;SDS011;68176;45.554;10.220;2023-03-23T17:30:31;15.77;;;8.35;;
78824;SDS011;68176;45.554;10.220;2023-03-23T17:33:01;17.35;;;7.78;;